Time;durP1;ratioP1;P1;durP2;ratioP2;P2;SDS_P1;SDS_P2;PMS_P1;PMS_P2;Temp;Humidity;BMP_temperature;BMP_pressure;BME280_temperature;BME280_humidity;BME280_pressure;Samples;Min_cycle;Max_cycle;Signal;HPM_P1;HPM_P2
2022/09/05 00:00:00;;;;;;;5.15;3.13;;;;;;;17.45;99.07;101134.06;697802;28;1123;-60
2022/09/05 00:00:21;;;;;;;4.57;3.10;;;;;;;17.34;98.91;101132.56;695546;28;1363;-60
2022/09/05 00:00:43;;;;;;;4.88;3.33;;;;;;;17.26;99.70;101131.03;696567;28;1440;-60
2022/09/05 00:01:16;;;;;;;4.47;3.20;;;;;;;17.22;99.53;101132.88;696451;28;1319;-60
2022/09/05 00:02:01;;;;;;;4.88;3.35;;;;;;;17.46;97.25;101128.75;697886;28;1288;-60
2022/09/05 00:02:32;;;;;;;4.93;3.20;;;;;;;17.48;97.61;101128.69;695979;28;4384;-60
2022/09/05 00:03:19;;;;;;;4.55;3.30;;;;;;;17.29;99.54;101131.81;697149;28;1246;-60
2022/09/05 00:04:09;;;;;;;4.25;3.22;;;;;;;17.31;97.79;101140.56;696670;28;1187;-60
2022/09/05 00:04:43;;;;;;;4.97;3.53;;;;;;;17.29;99.67;101134.47;696983;28;1276;-61
2022/09/05 00:05:28;;;;;;;5.32;3.42;;;;;;;17.27;98.43;101133.63;698588;28;1206;-60
2022/09/05 00:06:09;;;;;;;4.50;3.10;;;;;;;17.37;96.77;101134.25;696351;28;5931;-60
2022/09/05 00:06:35;;;;;;;4.53;3.00;;;;;;;17.39;98.04;101137.75;698174;28;1229;-61
2022/09/05 00:07:09;;;;;;;4.90;3.22;;;;;;;17.38;98.88;101135.13;697370;28;1218;-61
2022/09/05 00:07:52;;;;;;;4.60;3.40;;;;;;;17.23;99.60;101129.31;697590;28;1200;-61
2022/09/05 00:08:18;;;;;;;5.97;3.30;;;;;;;17.13;100.00;101138.41;695003;28;4426;-61
2022/09/05 00:08:49;;;;;;;4.70;3.20;;;;;;;17.18;98.41;101133.84;696622;28;1701;-60
2022/09/05 00:09:51;;;;;;;4.78;3.13;;;;;;;17.60;95.98;101136.31;696389;28;1047;-60
2022/09/05 00:10:30;;;;;;;4.88;3.10;;;;;;;17.41;98.75;101137.69;697383;28;1160;-60
2022/09/05 00:10:50;;;;;;;4.10;3.13;;;;;;;17.42;96.86;101129.72;697487;28;1033;-61
2022/09/05 00:11:24;;;;;;;4.13;2.90;;;;;;;17.49;96.51;101133.09;697233;28;4508;-61
2022/09/05 00:11:50;;;;;;;5.05;3.30;;;;;;;17.38;98.77;101135.13;696103;28;1250;-60
2022/09/05 00:12:12;;;;;;;4.80;3.20;;;;;;;17.26;99.60;101138.94;696894;28;1218;-60
2022/09/05 00:12:35;;;;;;;4.63;3.33;;;;;;;17.21;98.96;101136.44;697762;28;1289;-61
2022/09/05 00:12:58;;;;;;;5.00;3.30;;;;;;;17.26;97.95;101133.66;697824;28;1281;-60
2022/09/05 00:13:22;;;;;;;4.85;3.30;;;;;;;17.38;96.73;101138.63;698166;28;1148;-61
2022/09/05 00:13:51;;;;;;;5.20;3.13;;;;;;;17.42;97.32;101134.13;699800;28;1170;-61
2022/09/05 00:14:49;;;;;;;5.25;3.40;;;;;;;17.35;97.32;101134.31;697228;28;4590;-60
2022/09/05 00:15:31;;;;;;;4.55;3.10;;;;;;;17.36;98.43;101130.75;694892;28;1286;-60
2022/09/05 00:16:24;;;;;;;4.22;3.10;;;;;;;17.44;97.04;101132.31;698196;28;1277;-61
2022/09/05 00:17:07;;;;;;;4.20;3.20;;;;;;;17.24;99.69;101136.34;694359;28;1430;-61
2022/09/05 00:18:05;;;;;;;4.28;3.10;;;;;;;17.46;95.68;101135.78;697282;28;4851;-61
2022/09/05 00:18:49;;;;;;;6.00;3.00;;;;;;;17.43;98.43;101131.47;686328;28;1236;-60
2022/09/05 00:19:39;;;;;;;4.40;3.40;;;;;;;17.31;97.40;101137.94;697181;28;1256;-60
2022/09/05 00:20:22;;;;;;;4.40;3.47;;;;;;;17.35;98.34;101133.44;696175;28;1242;-59
2022/09/05 00:21:08;;;;;;;4.47;3.20;;;;;;;17.16;99.61;101133.03;695979;28;4718;-60
2022/09/05 00:21:45;;;;;;;4.32;3.10;;;;;;;17.22;98.96;101135.50;696845;28;1103;-60
2022/09/05 00:22:05;;;;;;;4.20;3.25;;;;;;;17.20;98.37;101142.63;696939;28;1391;-61
2022/09/05 00:22:38;;;;;;;4.27;3.33;;;;;;;17.15;99.43;101136.56;697062;28;1200;-59
2022/09/05 00:23:22;;;;;;;4.28;3.35;;;;;;;17.24;97.50;101131.06;696631;28;1193;-60
2022/09/05 00:23:57;;;;;;;4.78;3.30;;;;;;;17.25;98.17;101134.56;691170;28;4709;-60
2022/09/05 00:24:42;;;;;;;4.28;3.30;;;;;;;17.34;97.60;101139.63;690793;28;1336;-61
2022/09/05 00:25:15;;;;;;;5.78;3.40;;;;;;;17.31;97.32;101131.78;697263;28;1393;-60
2022/09/05 00:25:53;;;;;;;4.15;3.30;;;;;;;17.15;99.93;101131.28;695459;28;1305;-61
2022/09/05 00:26:47;;;;;;;5.70;3.67;;;;;;;17.24;96.70;101133.72;697237;28;4330;-61
2022/09/05 00:27:27;;;;;;;4.20;3.10;;;;;;;17.61;95.47;101139.81;696532;28;1050;-61
2022/09/05 00:28:29;;;;;;;5.03;3.25;;;;;;;17.40;97.16;101136.81;695866;28;1147;-60
2022/09/05 00:29:17;;;;;;;4.85;3.45;;;;;;;17.60;95.37;101131.03;687373;28;1449;-61
2022/09/05 00:30:15;;;;;;;3.65;2.92;;;;;;;17.37;96.89;101134.25;697254;28;4985;-60
2022/09/05 00:30:56;;;;;;;4.53;3.30;;;;;;;17.33;97.32;101136.13;693855;28;2021;-61
2022/09/05 00:31:39;;;;;;;4.32;3.20;;;;;;;17.30;98.11;101141.47;693097;28;1270;-60
2022/09/05 00:32:07;;;;;;;4.32;3.15;;;;;;;17.32;96.38;101131.75;695536;28;1309;-61
2022/09/05 00:32:28;;;;;;;4.25;3.13;;;;;;;17.46;95.61;101136.66;694286;28;4655;-60
2022/09/05 00:33:22;;;;;;;6.30;3.27;;;;;;;17.46;97.30;101135.78;696577;28;1292;-60
2022/09/05 00:34:08;;;;;;;3.97;3.15;;;;;;;17.10;100.00;101144.63;696190;28;1262;-59
2022/09/05 00:35:00;;;;;;;4.35;3.15;;;;;;;17.20;97.77;101137.34;699342;28;1265;-60
2022/09/05 00:35:20;;;;;;;4.03;3.03;;;;;;;17.28;96.86;101131.84;695105;28;4603;-61
2022/09/05 00:36:08;;;;;;;4.27;3.00;;;;;;;17.25;98.80;101131.91;697720;28;1235;-59
2022/09/05 00:36:44;;;;;;;3.80;3.00;;;;;;;17.13;99.18;101133.97;695789;28;1123;-59
2022/09/05 00:37:09;;;;;;;4.70;3.13;;;;;;;17.04;99.96;101134.19;696961;28;1290;-60
2022/09/05 00:37:39;;;;;;;4.72;3.10;;;;;;;16.92;100.00;101132.72;692732;28;1345;-59
2022/09/05 00:38:15;;;;;;;4.30;3.17;;;;;;;16.84;100.00;101132.84;692947;28;1298;-60
2022/09/05 00:38:40;;;;;;;4.65;3.35;;;;;;;17.01;98.12;101140.41;692667;28;4684;-59
2022/09/05 00:39:06;;;;;;;4.00;3.00;;;;;;;17.16;98.16;101133.88;694935;28;1198;-60
2022/09/05 00:39:39;;;;;;;4.70;3.30;;;;;;;17.08;99.21;101141.13;695593;28;1193;-60
2022/09/05 00:40:22;;;;;;;4.28;3.03;;;;;;;17.06;99.90;101134.16;697036;28;1066;-61
2022/09/05 00:40:50;;;;;;;4.38;3.10;;;;;;;16.91;100.00;101136.25;697439;28;1256;-60
2022/09/05 00:41:12;;;;;;;4.60;3.13;;;;;;;16.92;99.83;101129.19;696283;28;4291;-60
2022/09/05 00:41:33;;;;;;;4.15;3.00;;;;;;;16.99;99.15;101136.09;697539;28;1090;-60
2022/09/05 00:41:58;;;;;;;4.43;3.17;;;;;;;16.94;100.00;101133.53;697065;28;1363;-60
2022/09/05 00:42:21;;;;;;;4.80;3.22;;;;;;;16.91;100.00;101136.25;696159;28;1226;-59
2022/09/05 00:42:44;;;;;;;4.20;2.90;;;;;;;16.89;100.00;101130.16;695864;28;1209;-60
2022/09/05 00:43:10;;;;;;;4.53;3.05;;;;;;;16.89;100.00;101124.88;693852;28;1234;-60
2022/09/05 00:43:33;;;;;;;4.78;3.05;;;;;;;17.01;98.65;101132.47;696399;28;1158;-59
2022/09/05 00:43:56;;;;;;;3.97;2.88;;;;;;;17.01;100.00;101134.25;698423;28;1074;-60
2022/09/05 00:44:21;;;;;;;4.35;3.03;;;;;;;16.94;100.00;101130.91;695608;28;4334;-58
2022/09/05 00:44:59;;;;;;;4.45;2.70;;;;;;;17.01;99.26;101128.97;696506;28;1189;-60
2022/09/05 00:45:46;;;;;;;4.45;3.13;;;;;;;16.83;100.00;101132.91;696207;28;1341;-61
2022/09/05 00:46:29;;;;;;;4.80;3.33;;;;;;;16.92;98.68;101130.09;690788;28;2060;-61
2022/09/05 00:47:05;;;;;;;4.90;3.10;;;;;;;17.00;99.67;101133.41;696368;28;3499;-59
2022/09/05 00:47:34;;;;;;;4.18;3.00;;;;;;;17.08;97.68;101133.19;696636;28;4740;-60
2022/09/05 00:47:57;;;;;;;4.35;3.10;;;;;;;17.06;99.22;101132.38;697405;28;1269;-61
2022/09/05 00:48:52;;;;;;;4.63;3.08;;;;;;;17.06;99.34;101131.50;695915;28;1289;-59
2022/09/05 00:49:21;;;;;;;3.90;2.92;;;;;;;16.99;100.00;101131.66;696760;28;1234;-61
2022/09/05 00:49:52;;;;;;;4.25;3.08;;;;;;;16.89;99.98;101127.53;697222;28;1224;-60
2022/09/05 00:50:24;;;;;;;5.38;3.17;;;;;;;16.92;100.00;101127.44;696244;28;4498;-59
2022/09/05 00:51:11;;;;;;;6.00;3.00;;;;;;;16.97;99.17;101127.31;700196;28;1917;-60
2022/09/05 00:51:43;;;;;;;4.03;3.03;;;;;;;16.92;100.00;101135.38;699398;28;1482;-60
2022/09/05 00:52:26;;;;;;;4.75;3.10;;;;;;;16.82;100.00;101131.16;698998;28;1277;-61
2022/09/05 00:53:00;;;;;;;4.00;2.88;;;;;;;16.87;99.54;101129.28;696907;28;1190;-61
2022/09/05 00:53:47;;;;;;;4.95;3.10;;;;;;;16.96;98.79;101130.84;695240;28;4372;-60
2022/09/05 00:54:24;;;;;;;4.88;3.10;;;;;;;17.18;97.30;101134.72;696173;28;1854;-60
2022/09/05 00:54:55;;;;;;;3.80;2.88;;;;;;;17.11;99.32;101125.22;697646;28;1268;-60
2022/09/05 00:55:24;;;;;;;3.83;3.00;;;;;;;17.03;100.00;101135.13;695124;28;1074;-60
2022/09/05 00:56:18;;;;;;;4.43;3.00;;;;;;;16.89;100.00;101132.81;697569;28;1372;-61
2022/09/05 00:56:53;;;;;;;3.92;2.85;;;;;;;17.01;99.59;101134.25;696293;28;4856;-60
2022/09/05 00:57:39;;;;;;;3.90;2.80;;;;;;;17.09;97.88;101123.53;693706;28;1241;-58
2022/09/05 00:58:25;;;;;;;4.00;2.88;;;;;;;17.10;98.83;101118.19;693175;28;1281;-59
2022/09/05 00:59:26;;;;;;;3.70;3.03;;;;;;;16.90;98.99;101129.22;695049;28;1748;-60
2022/09/05 01:00:01;;;;;;;4.45;2.90;;;;;;;16.97;98.53;101130.81;697580;28;4706;-59
2022/09/05 01:00:32;;;;;;;3.90;2.80;;;;;;;17.26;95.91;101129.25;694039;28;1818;-61
2022/09/05 01:00:55;;;;;;;4.55;2.95;;;;;;;17.30;97.12;101122.97;694561;28;2141;-60
2022/09/05 01:01:42;;;;;;;5.78;3.10;;;;;;;17.13;99.00;101126.03;697247;28;1007;-60
2022/09/05 01:02:15;;;;;;;6.20;3.10;;;;;;;16.93;100.00;101129.16;696655;28;1230;-59
2022/09/05 01:03:14;;;;;;;4.75;2.95;;;;;;;16.92;98.22;101124.81;697114;28;4944;-61
2022/09/05 01:03:59;;;;;;;9.43;2.90;;;;;;;17.15;97.73;101129.50;690977;28;1268;-61
2022/09/05 01:04:26;;;;;;;4.80;3.13;;;;;;;17.08;99.08;101132.34;693009;28;1348;-60
2022/09/05 01:04:59;;;;;;;4.13;2.80;;;;;;;17.06;97.43;101127.09;697901;28;1300;-60
2022/09/05 01:05:35;;;;;;;4.85;3.10;;;;;;;17.17;97.14;101121.56;696861;28;4606;-60
2022/09/05 01:06:26;;;;;;;5.40;3.30;;;;;;;17.10;98.56;101125.25;694958;28;1373;-60
2022/09/05 01:07:09;;;;;;;5.70;3.00;;;;;;;17.09;97.57;101127.03;690158;28;1312;-59
2022/09/05 01:08:06;;;;;;;4.25;2.80;;;;;;;17.15;96.60;101128.66;690866;28;1346;-59
2022/09/05 01:08:59;;;;;;;5.13;3.03;;;;;;;17.05;98.48;101124.50;694166;28;4721;-60
2022/09/05 01:09:32;;;;;;;3.85;2.90;;;;;;;16.94;99.45;101130.91;696838;28;1292;-60
2022/09/05 01:10:27;;;;;;;3.72;2.92;;;;;;;16.87;100.00;101131.06;697141;28;1145;-60
2022/09/05 01:11:06;;;;;;;4.40;2.97;;;;;;;16.85;99.15;101125.81;683397;28;1305;-58
2022/09/05 01:11:42;;;;;;;3.97;2.90;;;;;;;17.00;97.16;101127.25;696377;28;4792;-60
2022/09/05 01:12:09;;;;;;;5.57;2.90;;;;;;;17.11;98.26;101124.34;696471;28;1217;-60
2022/09/05 01:12:47;;;;;;;4.85;2.83;;;;;;;16.94;100.00;101128.25;697911;28;1142;-61
2022/09/05 01:13:30;;;;;;;4.70;2.90;;;;;;;16.90;99.49;101123.09;696691;28;1319;-60
2022/09/05 01:14:04;;;;;;;4.30;2.90;;;;;;;16.86;100.00;101127.53;697601;28;1222;-59
2022/09/05 01:15:03;;;;;;;3.95;3.00;;;;;;;16.97;99.28;101122.91;695691;28;4750;-60
2022/09/05 01:15:51;;;;;;;4.20;2.80;;;;;;;16.80;100.00;101131.19;688749;28;1333;-60
2022/09/05 01:16:21;;;;;;;4.65;3.00;;;;;;;16.76;100.00;101124.25;689148;28;1267;-61
2022/09/05 01:17:29;;;;;;;4.40;2.90;;;;;;;16.97;97.63;101125.53;688696;28;1282;-60
2022/09/05 01:17:55;;;;;;;4.28;3.05;;;;;;;16.91;100.00;101127.47;675242;29;5041;-61
2022/09/05 01:18:38;;;;;;;4.35;2.88;;;;;;;16.83;99.91;101130.25;674810;29;1407;-61
2022/09/05 01:19:16;;;;;;;3.80;2.70;;;;;;;16.81;100.00;101132.06;676048;29;1288;-59
2022/09/05 01:19:59;;;;;;;4.10;2.80;;;;;;;16.87;98.14;101126.63;676058;29;1285;-60
2022/09/05 01:20:35;;;;;;;4.03;3.00;;;;;;;16.89;98.89;101130.16;679292;28;4280;-61
2022/09/05 01:21:29;;;;;;;3.90;2.60;;;;;;;16.86;100.00;101132.81;680120;28;1169;-60
2022/09/05 01:22:18;;;;;;;4.25;2.88;;;;;;;17.01;96.81;101137.75;687962;28;1105;-60
2022/09/05 01:22:57;;;;;;;4.85;2.90;;;;;;;17.15;96.45;101132.16;686284;28;1290;-58
2022/09/05 01:23:49;;;;;;;4.47;2.80;;;;;;;17.11;97.00;101134.91;684831;28;4560;-60
2022/09/05 01:24:26;;;;;;;4.20;2.80;;;;;;;17.13;96.59;101127.81;693679;28;1165;-61
2022/09/05 01:25:02;;;;;;;4.20;2.88;;;;;;;17.22;95.11;101124.09;697751;28;1241;-61
2022/09/05 01:25:53;;;;;;;3.65;2.70;;;;;;;17.33;95.31;101136.13;692700;28;1298;-61
2022/09/05 01:26:33;;;;;;;4.40;2.70;;;;;;;17.31;96.39;101135.28;695047;28;4377;-60
2022/09/05 01:27:32;;;;;;;3.88;2.80;;;;;;;17.33;94.88;101130.84;692196;28;1302;-60
2022/09/05 01:27:55;;;;;;;4.25;2.80;;;;;;;17.38;94.99;101128.06;695049;28;1162;-59
2022/09/05 01:28:26;;;;;;;4.80;2.63;;;;;;;17.26;96.72;101128.38;695031;28;5126;-61
2022/09/05 01:29:35;;;;;;;3.80;2.70;;;;;;;17.32;94.72;101133.50;696480;28;1233;-61
2022/09/05 01:30:03;;;;;;;5.28;2.92;;;;;;;17.21;96.78;101131.16;690848;28;4699;-61
2022/09/05 01:30:51;;;;;;;5.95;2.92;;;;;;;17.10;97.37;101134.06;697203;28;1115;-60
2022/09/05 01:31:14;;;;;;;4.22;2.92;;;;;;;17.09;97.13;101136.72;695893;28;1237;-61
2022/09/05 01:32:07;;;;;;;4.68;2.97;;;;;;;16.94;99.60;101130.03;693631;28;1497;-62
2022/09/05 01:33:00;;;;;;;4.20;2.80;;;;;;;16.90;98.70;101133.66;692715;28;1350;-60
2022/09/05 01:33:52;;;;;;;3.90;2.72;;;;;;;16.97;98.43;101130.81;692946;28;1145;-60
2022/09/05 01:34:31;;;;;;;4.07;2.83;;;;;;;16.97;97.04;101132.59;696232;28;1169;-59
2022/09/05 01:35:02;;;;;;;3.88;2.78;;;;;;;17.01;98.02;101134.25;697411;28;1126;-60
2022/09/05 01:35:52;;;;;;;4.00;2.63;;;;;;;16.87;98.25;101131.91;696815;28;4387;-60
2022/09/05 01:36:20;;;;;;;3.70;2.80;;;;;;;16.98;96.54;101129.91;696127;28;1174;-60
2022/09/05 01:37:04;;;;;;;5.10;2.70;;;;;;;17.05;96.68;101135.06;697905;28;1290;-61
2022/09/05 01:37:51;;;;;;;4.68;2.97;;;;;;;16.95;98.65;101129.16;695925;28;1400;-59
2022/09/05 01:38:48;;;;;;;6.07;3.00;;;;;;;16.81;99.75;101137.34;695942;28;4420;-60
2022/09/05 01:39:23;;;;;;;4.68;2.83;;;;;;;16.77;98.76;101127.78;697161;28;1312;-61
2022/09/05 01:39:49;;;;;;;3.63;2.60;;;;;;;16.96;96.70;101136.13;696981;28;1225;-60
2022/09/05 01:40:24;;;;;;;4.38;3.00;;;;;;;17.05;96.69;101135.06;696175;28;1119;-60
2022/09/05 01:41:11;;;;;;;5.07;2.95;;;;;;;17.01;97.73;101137.75;697534;28;1384;-60
2022/09/05 01:41:48;;;;;;;4.57;2.90;;;;;;;16.80;99.84;101132.97;691758;28;5105;-60
2022/09/05 01:42:37;;;;;;;3.25;2.60;;;;;;;16.74;99.96;101134.00;690502;28;1411;-60
2022/09/05 01:43:24;;;;;;;4.10;2.97;;;;;;;16.85;97.34;101136.38;696552;28;1370;-60
2022/09/05 01:44:04;;;;;;;3.97;2.80;;;;;;;16.92;97.18;101130.09;696877;28;1158;-60
2022/09/05 01:44:46;;;;;;;4.15;2.80;;;;;;;16.81;98.54;101140.00;696066;28;4711;-59
2022/09/05 01:45:47;;;;;;;4.28;2.83;;;;;;;16.95;96.36;101129.16;696824;28;1357;-60
2022/09/05 01:46:42;;;;;;;4.47;2.63;;;;;;;17.00;97.53;101135.16;685923;28;1485;-60
2022/09/05 01:47:22;;;;;;;4.85;2.97;;;;;;;16.87;98.61;101131.91;688316;28;1258;-61
2022/09/05 01:48:04;;;;;;;3.83;2.80;;;;;;;16.95;96.69;101132.66;696584;28;4982;-59
2022/09/05 01:48:33;;;;;;;4.35;2.67;;;;;;;16.95;97.45;101129.16;697037;28;1241;-61
2022/09/05 01:49:06;;;;;;;4.25;2.80;;;;;;;16.83;98.71;101130.25;697664;28;1316;-62
2022/09/05 01:50:08;;;;;;;4.78;2.72;;;;;;;16.78;98.76;101132.13;695687;28;1318;-61
2022/09/05 01:50:34;;;;;;;4.47;2.90;;;;;;;16.82;98.25;101133.78;696233;28;4698;-62
2022/09/05 01:51:19;;;;;;;4.50;3.00;;;;;;;16.77;99.42;101133.91;697125;28;1256;-60
2022/09/05 01:52:08;;;;;;;4.38;3.00;;;;;;;16.73;97.81;101134.03;697224;28;1253;-61
2022/09/05 01:52:37;;;;;;;4.43;3.00;;;;;;;16.75;99.57;101126.94;697469;28;1229;-60
2022/09/05 01:53:13;;;;;;;4.35;2.85;;;;;;;16.70;98.84;101127.03;692699;28;1265;-60
2022/09/05 01:53:55;;;;;;;3.75;2.80;;;;;;;16.59;100.00;101127.28;694541;28;4939;-62
2022/09/05 01:54:34;;;;;;;3.80;3.00;;;;;;;16.57;100.00;101123.78;696764;28;1218;-60
2022/09/05 01:55:10;;;;;;;3.70;2.75;;;;;;;16.61;99.66;101130.72;696865;28;1353;-60
2022/09/05 01:55:45;;;;;;;4.80;3.08;;;;;;;16.61;99.40;101133.38;696114;28;1028;-60
2022/09/05 01:56:18;;;;;;;4.07;2.70;;;;;;;16.58;100.00;101130.81;697183;28;4933;-60
2022/09/05 01:57:09;;;;;;;4.10;2.90;;;;;;;16.65;98.86;101128.91;695529;28;1214;-60
2022/09/05 01:57:44;;;;;;;3.78;2.85;;;;;;;16.62;99.62;101132.47;697723;28;1277;-60
2022/09/05 01:58:15;;;;;;;5.07;2.83;;;;;;;16.66;98.86;101130.66;696771;28;1273;-60
2022/09/05 01:58:54;;;;;;;4.88;2.72;;;;;;;16.67;98.56;101127.13;696367;28;1296;-61
2022/09/05 01:59:56;;;;;;;3.80;2.75;;;;;;;16.63;99.74;101126.31;694634;28;4513;-61
2022/09/05 02:00:23;;;;;;;4.57;3.05;;;;;;;16.62;98.93;101132.47;695612;28;1207;-60
2022/09/05 02:00:49;;;;;;;4.43;2.90;;;;;;;16.60;100.00;101126.38;695650;28;1190;-61
2022/09/05 02:01:23;;;;;;;4.22;3.03;;;;;;;16.52;100.00;101128.31;697307;28;1145;-60
2022/09/05 02:02:15;;;;;;;4.20;2.92;;;;;;;16.58;98.54;101129.94;696387;28;1394;-61
2022/09/05 02:02:41;;;;;;;4.43;3.03;;;;;;;16.66;98.33;101123.59;696205;28;4735;-60
2022/09/05 02:03:29;;;;;;;3.88;2.80;;;;;;;16.62;99.66;101129.84;695540;28;1122;-61
2022/09/05 02:03:58;;;;;;;4.60;3.00;;;;;;;16.52;100.00;101131.81;697691;28;1224;-60
2022/09/05 02:04:49;;;;;;;4.38;2.88;;;;;;;16.45;100.00;101127.59;697379;28;991;-61
2022/09/05 02:05:49;;;;;;;4.22;2.85;;;;;;;16.46;100.00;101137.25;696062;28;4392;-60
2022/09/05 02:06:27;;;;;;;4.20;2.90;;;;;;;16.47;99.37;101135.47;682440;28;1223;-61
2022/09/05 02:07:13;;;;;;;3.95;3.00;;;;;;;16.54;100.00;101128.28;682628;28;1175;-61
2022/09/05 02:08:03;;;;;;;5.57;3.15;;;;;;;16.48;99.83;101138.06;698721;28;1182;-62
2022/09/05 02:08:33;;;;;;;5.13;3.15;;;;;;;16.39;100.00;101132.13;700167;28;4446;-60
2022/09/05 02:09:33;;;;;;;4.00;3.10;;;;;;;16.30;100.00;101139.31;699544;28;1541;-61
2022/09/05 02:10:18;;;;;;;4.03;3.00;;;;;;;16.44;99.35;101133.75;698449;28;1614;-61
2022/09/05 02:10:51;;;;;;;4.38;3.08;;;;;;;16.59;98.88;101131.69;699165;28;1967;-60
2022/09/05 02:11:12;;;;;;;4.10;2.72;;;;;;;16.57;99.66;101139.63;695486;28;4483;-62
2022/09/05 02:11:39;;;;;;;4.47;2.90;;;;;;;16.54;100.00;101141.47;697260;28;1233;-60
2022/09/05 02:12:06;;;;;;;4.35;3.05;;;;;;;16.42;100.00;101132.94;694317;28;1261;-62
2022/09/05 02:12:37;;;;;;;4.22;2.97;;;;;;;16.32;100.00;101134.91;696347;28;1222;-59
2022/09/05 02:13:34;;;;;;;4.22;3.10;;;;;;;16.27;100.00;101142.03;694708;28;1254;-60
2022/09/05 02:14:01;;;;;;;4.60;3.10;;;;;;;16.23;100.00;101132.44;695504;28;1262;-61
2022/09/05 02:14:25;;;;;;;5.47;3.20;;;;;;;16.19;100.00;101138.69;697637;28;4330;-61
2022/09/05 02:15:12;;;;;;;4.97;3.13;;;;;;;16.15;100.00;101137.00;698104;28;1261;-60
2022/09/05 02:15:51;;;;;;;5.07;3.00;;;;;;;16.14;100.00;101140.53;699794;28;1425;-59
2022/09/05 02:16:14;;;;;;;4.10;3.10;;;;;;;16.06;100.00;101137.19;698266;28;1693;-61
2022/09/05 02:16:37;;;;;;;3.95;3.08;;;;;;;16.05;100.00;101140.72;700024;28;1953;-61
2022/09/05 02:17:26;;;;;;;4.00;3.10;;;;;;;16.06;100.00;101139.81;698858;28;1116;-61
2022/09/05 02:17:52;;;;;;;3.90;3.05;;;;;;;16.12;100.00;101130.03;699472;28;4869;-61
2022/09/05 02:18:26;;;;;;;4.43;3.10;;;;;;;16.19;100.00;101136.06;696706;28;1090;-60
2022/09/05 02:19:07;;;;;;;4.03;2.90;;;;;;;16.13;100.00;101133.53;698892;28;1451;-61
2022/09/05 02:19:30;;;;;;;4.57;3.05;;;;;;;16.19;100.00;101137.84;695403;28;1167;-61
2022/09/05 02:20:06;;;;;;;4.13;2.92;;;;;;;16.11;100.00;101130.06;695759;28;1214;-61
2022/09/05 02:20:32;;;;;;;4.47;3.22;;;;;;;16.09;100.00;101134.47;697333;28;6160;-61
2022/09/05 02:20:59;;;;;;;4.55;3.00;;;;;;;16.07;100.00;101134.53;696850;28;1135;-60
2022/09/05 02:21:32;;;;;;;3.97;3.00;;;;;;;16.13;100.00;101129.13;697733;28;1002;-61
2022/09/05 02:22:17;;;;;;;4.70;3.20;;;;;;;16.17;100.00;101136.09;695544;28;1202;-60
2022/09/05 02:22:44;;;;;;;4.70;3.03;;;;;;;16.18;100.00;101134.31;696871;28;1370;-60
2022/09/05 02:23:16;;;;;;;4.65;3.22;;;;;;;16.13;100.00;101136.16;697452;28;1384;-59
2022/09/05 02:23:49;;;;;;;4.85;3.28;;;;;;;16.10;100.00;101128.31;697755;28;4864;-59
2022/09/05 02:24:33;;;;;;;4.82;3.03;;;;;;;16.11;100.00;101145.88;697044;28;1150;-61
2022/09/05 02:25:05;;;;;;;4.20;3.13;;;;;;;16.05;100.00;101135.44;696567;28;1397;-60
2022/09/05 02:25:49;;;;;;;4.63;3.28;;;;;;;16.14;100.00;101140.53;698834;28;1175;-60
2022/09/05 02:26:33;;;;;;;4.57;3.20;;;;;;;16.10;100.00;101136.22;697338;28;4358;-58
2022/09/05 02:27:15;;;;;;;4.50;3.13;;;;;;;16.16;100.00;101130.84;698161;28;1160;-59
2022/09/05 02:27:46;;;;;;;4.60;3.10;;;;;;;16.15;100.00;101134.38;697986;28;1198;-60
2022/09/05 02:28:28;;;;;;;4.95;3.40;;;;;;;16.20;100.00;101131.63;693609;28;5078;-62
2022/09/05 02:28:58;;;;;;;5.35;3.13;;;;;;;16.25;100.00;101130.63;692891;28;1223;-60
2022/09/05 02:29:41;;;;;;;4.40;3.25;;;;;;;16.13;100.00;101130.88;692270;28;4678;-59
2022/09/05 02:30:09;;;;;;;4.82;3.30;;;;;;;16.03;100.00;101131.97;691625;28;1207;-60
2022/09/05 02:30:40;;;;;;;4.97;3.40;;;;;;;16.07;100.00;101136.31;692725;28;7203;-58
2022/09/05 02:31:11;;;;;;;4.60;3.17;;;;;;;16.00;100.00;101138.19;685496;28;6893;-61
2022/09/05 02:31:44;;;;;;;4.20;3.25;;;;;;;15.98;100.00;101132.94;695245;28;1197;-62
2022/09/05 02:32:16;;;;;;;5.05;3.40;;;;;;;15.96;100.00;101134.75;695873;28;1336;-61
2022/09/05 02:33:04;;;;;;;5.38;3.50;;;;;;;15.92;100.00;101133.06;696256;28;1206;-60
2022/09/05 02:34:00;;;;;;;4.40;3.33;;;;;;;16.09;100.00;101131.84;692661;28;1141;-60
2022/09/05 02:34:53;;;;;;;4.32;3.40;;;;;;;16.06;100.00;101129.28;690343;28;4959;-59
2022/09/05 02:35:50;;;;;;;4.18;3.33;;;;;;;15.99;100.00;101131.16;691312;28;1367;-61
2022/09/05 02:36:24;;;;;;;4.38;3.42;;;;;;;16.08;100.00;101130.13;683867;28;1293;-62
2022/09/05 02:36:51;;;;;;;4.60;3.40;;;;;;;16.05;100.00;101127.53;691872;28;1496;-60
2022/09/05 02:37:21;;;;;;;4.88;3.40;;;;;;;15.99;100.00;101134.69;697610;28;4682;-61
2022/09/05 02:37:48;;;;;;;4.20;3.20;;;;;;;15.96;100.00;101131.22;699383;28;1228;-60
2022/09/05 02:38:18;;;;;;;4.18;3.30;;;;;;;16.02;100.00;101132.88;697710;28;1125;-59
2022/09/05 02:38:56;;;;;;;4.47;3.10;;;;;;;15.94;100.00;101133.91;698075;28;1570;-60
2022/09/05 02:39:32;;;;;;;4.72;3.30;;;;;;;15.88;100.00;101130.50;694225;28;5970;-62
2022/09/05 02:40:15;;;;;;;4.38;3.00;;;;;;;16.04;100.00;101134.59;692281;28;4433;-61
2022/09/05 02:40:35;;;;;;;4.45;3.28;;;;;;;16.02;100.00;101130.25;691411;28;1427;-61
2022/09/05 02:41:03;;;;;;;4.53;3.38;;;;;;;15.96;100.00;101131.22;692400;28;1055;-59
2022/09/05 02:41:45;;;;;;;4.63;3.30;;;;;;;15.96;100.00;101136.50;697255;28;1146;-61
2022/09/05 02:42:21;;;;;;;4.20;3.30;;;;;;;15.90;100.00;101131.38;697501;28;1177;-60
2022/09/05 02:43:05;;;;;;;4.00;3.10;;;;;;;15.82;100.00;101131.50;696556;28;1311;-60
2022/09/05 02:43:50;;;;;;;4.40;3.28;;;;;;;15.81;100.00;101130.66;696561;28;5527;-61
2022/09/05 02:45:09;;;;;;;4.82;3.28;;;;;;;15.77;100.00;101131.56;699060;28;1441;-61
2022/09/05 02:46:03;;;;;;;4.93;3.70;;;;;;;15.77;100.00;101133.31;689276;28;1151;-60
2022/09/05 02:46:35;;;;;;;4.65;3.40;;;;;;;15.70;100.00;101134.34;695733;28;4682;-60
2022/09/05 02:47:06;;;;;;;4.50;3.20;;;;;;;15.83;100.00;101131.47;699789;28;1091;-60
2022/09/05 02:47:34;;;;;;;4.83;3.37;;;;;;;15.84;100.00;101132.34;700454;28;1215;-60
2022/09/05 02:48:03;;;;;;;5.30;3.40;;;;;;;15.83;100.00;101133.25;697381;28;6459;-60
2022/09/05 02:48:43;;;;;;;4.18;3.30;;;;;;;15.80;100.00;101128.03;697123;28;1077;-60
2022/09/05 02:49:11;;;;;;;4.93;3.25;;;;;;;15.88;100.00;101139.31;698583;28;4273;-58
2022/09/05 02:49:59;;;;;;;4.70;3.30;;;;;;;15.85;100.00;101128.78;698064;28;1313;-61
2022/09/05 02:50:33;;;;;;;4.05;3.20;;;;;;;15.83;100.00;101127.97;697493;28;1228;-61
2022/09/05 02:51:35;;;;;;;5.07;3.30;;;;;;;15.98;100.00;101138.22;695873;28;1182;-61
2022/09/05 02:52:02;;;;;;;4.57;3.20;;;;;;;15.93;100.00;101137.44;690275;28;4363;-62
2022/09/05 02:52:25;;;;;;;4.53;3.28;;;;;;;15.90;100.00;101129.59;689055;28;1248;-60
2022/09/05 02:52:48;;;;;;;4.93;3.45;;;;;;;15.90;100.00;101129.59;698280;28;1206;-60
2022/09/05 02:53:12;;;;;;;4.47;3.40;;;;;;;15.90;100.00;101129.59;696615;28;1622;-61
2022/09/05 02:53:37;;;;;;;4.28;3.20;;;;;;;15.92;100.00;101121.66;696157;28;1292;-61
2022/09/05 02:54:02;;;;;;;4.30;3.30;;;;;;;15.89;100.00;101125.19;699045;28;1149;-62
2022/09/05 02:54:28;;;;;;;4.68;3.10;;;;;;;15.87;100.00;101129.66;699592;28;1261;-60
2022/09/05 02:54:52;;;;;;;5.60;3.20;;;;;;;15.86;100.00;101127.91;695612;28;4429;-61
2022/09/05 02:55:30;;;;;;;4.43;3.13;;;;;;;15.86;100.00;101130.53;696135;28;1071;-60
2022/09/05 02:56:41;;;;;;;4.40;3.20;;;;;;;15.89;100.00;101135.75;693002;28;1142;-60
2022/09/05 02:57:11;;;;;;;4.30;2.92;;;;;;;15.86;100.00;101134.97;683696;28;1088;-61
2022/09/05 02:57:42;;;;;;;3.90;3.05;;;;;;;15.91;100.00;101141.00;683399;28;1061;-61
2022/09/05 02:58:37;;;;;;;5.60;3.10;;;;;;;15.89;100.00;101133.13;685553;28;4264;-60
2022/09/05 02:59:09;;;;;;;4.30;3.17;;;;;;;15.95;100.00;101135.66;683017;28;1089;-60
2022/09/05 02:59:46;;;;;;;4.60;3.30;;;;;;;15.89;100.00;101134.91;685166;28;1859;-60
2022/09/05 03:00:15;;;;;;;5.00;3.35;;;;;;;15.89;100.00;101135.75;683082;28;1324;-60
2022/09/05 03:00:47;;;;;;;4.68;3.30;;;;;;;15.93;100.00;101132.16;683117;28;1259;-60